Time;durP1;ratioP1;P1;durP2;ratioP2;P2;SDS_P1;SDS_P2;PMS_P1;PMS_P2;Temp;Humidity;BMP_temperature;BMP_pressure;BME280_temperature;BME280_humidity;BME280_pressure;Samples;Min_cycle;Max_cycle;Signal;HPM_P1;HPM_P2
2024/02/17 00:00:25;;;;;;;22.02;9.60;;;;;;;-141.50;100.00;63355.56;4997461;28;20544;-83
2024/02/17 00:02:53;;;;;;;17.17;9.00;;;;;;;-141.50;100.00;63355.56;4994983;28;20054;-83
2024/02/17 00:05:23;;;;;;;22.80;10.57;;;;;;;-141.50;100.00;63355.56;4994469;28;20510;-85
2024/02/17 00:07:50;;;;;;;30.33;11.27;;;;;;;-141.50;100.00;63355.56;4962322;28;20059;-84
2024/02/17 00:10:17;;;;;;;19.45;10.65;;;;;;;-141.50;100.00;63355.56;4977740;28;20530;-82
2024/02/17 00:12:44;;;;;;;25.67;10.98;;;;;;;-141.50;100.00;63355.56;5001620;28;20058;-83
2024/02/17 00:15:12;;;;;;;24.15;11.07;;;;;;;-141.50;100.00;63355.56;4990460;28;20050;-81
2024/02/17 00:17:39;;;;;;;22.63;11.05;;;;;;;-141.50;100.00;63355.56;4990923;28;20113;-80
2024/02/17 00:20:07;;;;;;;19.30;10.90;;;;;;;-141.50;100.00;63355.56;4985409;28;20073;-82
2024/02/17 00:22:34;;;;;;;21.05;11.13;;;;;;;-141.50;100.00;63355.56;4986648;28;20060;-81
2024/02/17 00:25:01;;;;;;;20.23;11.18;;;;;;;-141.50;100.00;63355.56;5002563;28;20073;-80
2024/02/17 00:27:28;;;;;;;25.42;11.73;;;;;;;-141.50;100.00;63355.56;4993359;28;20138;-82
2024/02/17 00:29:55;;;;;;;22.83;11.77;;;;;;;-141.50;100.00;63355.56;4992912;28;20051;-82
2024/02/17 00:32:22;;;;;;;27.80;11.57;;;;;;;-141.50;100.00;63355.56;4999825;28;20066;-79
2024/02/17 00:34:49;;;;;;;25.83;12.10;;;;;;;-141.50;100.00;63355.56;4977458;28;20054;-85
2024/02/17 00:37:16;;;;;;;27.55;12.20;;;;;;;-141.50;100.00;63355.56;4973255;28;20125;-80
2024/02/17 00:39:42;;;;;;;24.45;12.23;;;;;;;-141.50;100.00;63355.56;5003040;28;20057;-82
2024/02/17 00:42:10;;;;;;;24.35;12.10;;;;;;;-141.50;100.00;63355.56;4995238;28;20084;-81
2024/02/17 00:44:37;;;;;;;25.70;13.30;;;;;;;-141.50;100.00;63355.56;4976095;28;20077;-79
2024/02/17 00:47:04;;;;;;;31.50;14.27;;;;;;;-141.50;100.00;63355.56;4984225;28;20124;-82
2024/02/17 00:49:31;;;;;;;25.95;12.30;;;;;;;-141.50;100.00;63355.56;4992493;28;20064;-82
2024/02/17 00:51:58;;;;;;;24.17;12.45;;;;;;;-141.50;100.00;63355.56;4994487;28;20544;-82
2024/02/17 00:54:25;;;;;;;25.33;12.07;;;;;;;-141.50;100.00;63355.56;4992139;28;20154;-82
2024/02/17 00:56:52;;;;;;;22.20;12.02;;;;;;;-141.50;100.00;63355.56;5002960;28;20066;-81
2024/02/17 00:59:19;;;;;;;21.95;11.93;;;;;;;-141.50;100.00;63355.56;4999715;28;20146;-83
2024/02/17 01:01:45;;;;;;;25.38;12.23;;;;;;;-141.50;100.00;63355.56;5013083;28;20121;-84
2024/02/17 01:04:15;;;;;;;25.38;13.27;;;;;;;-141.50;100.00;63355.56;5006204;28;20062;-84
2024/02/17 01:06:45;;;;;;;19.05;11.10;;;;;;;-141.50;100.00;63355.56;4998569;28;20061;-85
2024/02/17 01:09:12;;;;;;;22.45;11.45;;;;;;;-141.50;100.00;63355.56;4995988;28;20109;-83
2024/02/17 01:11:39;;;;;;;21.70;11.75;;;;;;;-141.50;100.00;63355.56;4985716;28;20106;-83
2024/02/17 01:14:06;;;;;;;21.15;12.25;;;;;;;-141.50;100.00;63355.56;4974786;28;20053;-84
2024/02/17 01:16:33;;;;;;;23.25;12.18;;;;;;;-141.50;100.00;63355.56;4987624;28;20055;-84
2024/02/17 01:19:00;;;;;;;25.92;12.07;;;;;;;-141.50;100.00;63355.56;5003718;28;20086;-82
2024/02/17 01:21:30;;;;;;;21.63;11.18;;;;;;;-141.50;100.00;63355.56;4994375;28;20065;-83
2024/02/17 01:23:58;;;;;;;22.50;12.65;;;;;;;-141.50;100.00;63355.56;5002918;28;20058;-83
2024/02/17 01:26:26;;;;;;;23.25;11.90;;;;;;;-141.50;100.00;63355.56;5007089;28;20062;-85
2024/02/17 01:28:52;;;;;;;24.15;11.90;;;;;;;-141.50;100.00;63355.56;5013556;28;20058;-81
2024/02/17 01:31:19;;;;;;;25.23;12.02;;;;;;;-141.50;100.00;63355.56;5011504;28;20058;-82
2024/02/17 01:33:50;;;;;;;21.98;11.10;;;;;;;-141.50;100.00;63355.56;4995729;28;20107;-82
2024/02/17 01:36:17;;;;;;;20.52;10.70;;;;;;;-141.50;100.00;63355.56;4988325;28;20077;-82
2024/02/17 01:38:45;;;;;;;23.00;11.00;;;;;;;-141.50;100.00;63355.56;4977890;28;20058;-80
2024/02/17 01:41:13;;;;;;;26.33;11.50;;;;;;;-141.50;100.00;63355.56;4999526;28;20129;-81
2024/02/17 01:43:40;;;;;;;22.25;11.32;;;;;;;-141.50;100.00;63355.56;5000634;28;20042;-82
2024/02/17 01:46:07;;;;;;;24.27;11.60;;;;;;;-141.50;100.00;63355.56;4988441;28;20050;-83
2024/02/17 01:48:34;;;;;;;27.38;12.60;;;;;;;-141.50;100.00;63355.56;4992696;28;20056;-83
2024/02/17 01:51:05;;;;;;;30.35;13.07;;;;;;;-141.50;100.00;63355.56;4975249;28;20057;-82
2024/02/17 01:53:32;;;;;;;30.27;13.75;;;;;;;-141.50;100.00;63355.56;4999424;28;20046;-82
2024/02/17 01:56:00;;;;;;;28.02;12.65;;;;;;;-141.50;100.00;63355.56;5000899;28;20503;-84
2024/02/17 01:58:28;;;;;;;32.70;13.73;;;;;;;-141.50;100.00;63355.56;4991594;28;20050;-83
2024/02/17 02:00:55;;;;;;;33.42;13.57;;;;;;;-141.50;100.00;63355.56;4985388;28;20058;-84
2024/02/17 02:03:22;;;;;;;31.27;13.43;;;;;;;-141.50;100.00;63355.56;5000332;28;20066;-85
2024/02/17 02:05:49;;;;;;;24.40;12.00;;;;;;;-141.50;100.00;63355.56;4999353;28;20062;-83
2024/02/17 02:08:16;;;;;;;27.63;12.30;;;;;;;-141.50;100.00;63355.56;4994404;28;20606;-83
2024/02/17 02:10:43;;;;;;;28.33;12.43;;;;;;;-141.50;100.00;63355.56;4975904;28;20534;-82
2024/02/17 02:13:10;;;;;;;27.27;11.73;;;;;;;-141.50;100.00;63355.56;4982366;28;20062;-82
2024/02/17 02:15:44;;;;;;;36.42;13.57;;;;;;;-141.50;100.00;63355.56;5003862;28;20137;-79
2024/02/17 02:18:21;;;;;;;28.20;12.70;;;;;;;-141.50;100.00;63355.56;4986977;28;20108;-82
2024/02/17 02:20:49;;;;;;;32.80;13.32;;;;;;;-141.50;100.00;63355.56;4999375;28;20054;-85
2024/02/17 02:23:17;;;;;;;30.17;13.02;;;;;;;-141.50;100.00;63355.56;4999246;28;20066;-81
2024/02/17 02:25:51;;;;;;;33.08;13.38;;;;;;;-141.50;100.00;63355.56;4998865;28;20073;-83
2024/02/17 02:28:19;;;;;;;26.40;12.90;;;;;;;-141.50;100.00;63355.56;5006916;28;20057;-84
2024/02/17 02:30:46;;;;;;;28.85;12.93;;;;;;;-141.50;100.00;63355.56;5001993;28;20050;-83
2024/02/17 02:33:14;;;;;;;30.63;12.88;;;;;;;-141.50;100.00;63355.56;5000777;28;20046;-85
2024/02/17 02:35:45;;;;;;;32.33;14.00;;;;;;;-141.50;100.00;63355.56;4979280;28;20523;-82
2024/02/17 02:38:12;;;;;;;32.67;13.57;;;;;;;-141.50;100.00;63355.56;4988504;28;20077;-81
2024/02/17 02:40:39;;;;;;;33.05;14.57;;;;;;;-141.50;100.00;63355.56;4999269;28;20042;-82
2024/02/17 02:43:09;;;;;;;35.45;15.32;;;;;;;-141.50;100.00;63355.56;4987493;28;20066;-81
2024/02/17 02:45:37;;;;;;;37.85;15.25;;;;;;;-141.50;100.00;63355.56;4992878;28;20524;-81
2024/02/17 02:48:05;;;;;;;42.22;16.02;;;;;;;-141.50;100.00;63355.56;4995745;28;20092;-82
2024/02/17 02:50:32;;;;;;;36.17;15.18;;;;;;;-141.50;100.00;63355.56;5004223;28;20046;-80
2024/02/17 02:52:59;;;;;;;33.45;14.88;;;;;;;-141.50;100.00;63355.56;5008574;28;20144;-81
2024/02/17 02:55:26;;;;;;;34.28;14.70;;;;;;;-141.50;100.00;63355.56;4993795;28;20056;-81
2024/02/17 02:57:53;;;;;;;34.55;15.32;;;;;;;-141.50;100.00;63355.56;5001843;28;20058;-82
2024/02/17 03:00:21;;;;;;;32.03;15.07;;;;;;;-141.50;100.00;63355.56;4998336;28;20117;-81
2024/02/17 03:02:48;;;;;;;35.05;15.93;;;;;;;-141.50;100.00;63355.56;4993923;28;20042;-82
2024/02/17 03:05:18;;;;;;;35.30;14.80;;;;;;;-141.50;100.00;63355.56;4993957;28;20062;-82
2024/02/17 03:07:45;;;;;;;39.30;15.38;;;;;;;-141.50;100.00;63355.56;5006967;28;20109;-82
2024/02/17 03:10:12;;;;;;;34.60;14.88;;;;;;;-141.50;100.00;63355.56;4990269;28;20058;-82
2024/02/17 03:12:39;;;;;;;33.75;15.13;;;;;;;-141.50;100.00;63355.56;4981320;28;20050;-82
2024/02/17 03:15:06;;;;;;;35.28;15.50;;;;;;;-141.50;100.00;63355.56;4999348;28;20058;-82
2024/02/17 03:17:33;;;;;;;39.55;16.55;;;;;;;-141.50;100.00;63355.56;4975038;28;20042;-81
2024/02/17 03:20:04;;;;;;;40.17;15.55;;;;;;;-141.50;100.00;63355.56;4976876;28;20054;-82
2024/02/17 03:22:33;;;;;;;44.25;16.58;;;;;;;-141.50;100.00;63355.56;5000254;28;20092;-84
2024/02/17 03:24:59;;;;;;;32.80;14.10;;;;;;;-141.50;100.00;63355.56;5003548;28;20103;-83
2024/02/17 03:27:27;;;;;;;36.13;15.25;;;;;;;-141.50;100.00;63355.56;5001257;28;20049;-82
2024/02/17 03:29:54;;;;;;;40.33;15.90;;;;;;;-141.50;100.00;63355.56;4998536;28;20297;-83
2024/02/17 03:32:21;;;;;;;35.53;15.57;;;;;;;-141.50;100.00;63355.56;4991604;28;20084;-84
2024/02/17 03:34:48;;;;;;;40.58;15.32;;;;;;;-141.50;100.00;63355.56;5001272;28;20507;-82
2024/02/17 03:37:16;;;;;;;38.03;15.15;;;;;;;-141.50;100.00;63355.56;5002097;28;20410;-79
2024/02/17 03:39:43;;;;;;;30.48;13.27;;;;;;;-141.50;100.00;63355.56;4993680;28;20057;-81
2024/02/17 03:42:10;;;;;;;38.13;15.68;;;;;;;-141.50;100.00;63355.56;4997717;28;20352;-82
2024/02/17 03:44:37;;;;;;;38.85;15.25;;;;;;;-141.50;100.00;63355.56;5004260;28;20051;-81
2024/02/17 03:47:05;;;;;;;34.60;14.63;;;;;;;-141.50;100.00;63355.56;5002023;28;20058;-81
2024/02/17 03:49:32;;;;;;;35.15;13.98;;;;;;;-141.50;100.00;63355.56;4994317;28;20046;-82
2024/02/17 03:51:59;;;;;;;34.03;14.70;;;;;;;-141.50;100.00;63355.56;4992624;28;20089;-81
2024/02/17 03:54:26;;;;;;;36.85;15.50;;;;;;;-141.50;100.00;63355.56;4989265;28;20046;-82
2024/02/17 03:56:53;;;;;;;39.03;15.63;;;;;;;-141.50;100.00;63355.56;5001713;28;20225;-81
2024/02/17 03:59:20;;;;;;;38.28;14.68;;;;;;;-141.50;100.00;63355.56;4982752;28;20070;-84
2024/02/17 04:01:47;;;;;;;38.15;15.27;;;;;;;-141.50;100.00;63355.56;5002972;28;20050;-82
2024/02/17 04:04:14;;;;;;;33.20;14.68;;;;;;;-141.50;100.00;63355.56;5002664;28;20054;-81
2024/02/17 04:06:43;;;;;;;41.13;15.10;;;;;;;-141.50;100.00;63355.56;4993827;28;20073;-81
2024/02/17 04:09:10;;;;;;;36.13;15.48;;;;;;;-141.50;100.00;63355.56;5003275;28;20060;-84
2024/02/17 04:11:37;;;;;;;31.92;14.32;;;;;;;-141.50;100.00;63355.56;5004556;28;20046;-84
2024/02/17 04:14:04;;;;;;;39.38;15.38;;;;;;;-141.50;100.00;63355.56;4997807;28;20460;-81
2024/02/17 04:16:31;;;;;;;39.45;15.13;;;;;;;-141.50;100.00;63355.56;4999919;28;20061;-82
2024/02/17 04:18:58;;;;;;;41.03;16.40;;;;;;;-141.50;100.00;63355.56;5001407;28;20050;-81
2024/02/17 04:21:25;;;;;;;46.72;15.60;;;;;;;-141.50;100.00;63355.56;4974969;28;20489;-81
2024/02/17 04:23:52;;;;;;;41.45;15.48;;;;;;;-141.50;100.00;63355.56;4994743;28;20050;-82
2024/02/17 04:26:19;;;;;;;39.40;15.85;;;;;;;-141.50;100.00;63355.56;4991716;28;20130;-82
2024/02/17 04:28:46;;;;;;;37.08;15.40;;;;;;;-141.50;100.00;63355.56;4995031;28;20515;-81
2024/02/17 04:31:13;;;;;;;36.35;15.50;;;;;;;-141.50;100.00;63355.56;4984738;28;20054;-82
2024/02/17 04:33:40;;;;;;;38.97;15.65;;;;;;;-141.50;100.00;63355.56;4992708;28;20046;-82
2024/02/17 04:36:08;;;;;;;38.22;15.10;;;;;;;-141.50;100.00;63355.56;5001117;28;20412;-82
2024/02/17 04:38:35;;;;;;;38.85;15.18;;;;;;;-141.50;100.00;63355.56;5004142;28;20510;-83
2024/02/17 04:41:03;;;;;;;38.08;15.40;;;;;;;-141.50;100.00;63355.56;4992724;28;20672;-81
2024/02/17 04:43:30;;;;;;;38.83;16.25;;;;;;;-141.50;100.00;63355.56;4982600;28;20495;-82
2024/02/17 04:45:57;;;;;;;40.65;16.65;;;;;;;-141.50;100.00;63355.56;4994383;28;20582;-81
2024/02/17 04:48:24;;;;;;;46.40;18.13;;;;;;;-141.50;100.00;63355.56;4998878;28;20055;-81
2024/02/17 04:50:51;;;;;;;56.15;19.92;;;;;;;-141.50;100.00;63355.56;5002128;28;20526;-84
2024/02/17 04:53:18;;;;;;;50.03;19.20;;;;;;;-141.50;100.00;63355.56;4977066;28;20085;-80
2024/02/17 04:55:45;;;;;;;47.92;18.70;;;;;;;-141.50;100.00;63355.56;4993333;28;20050;-84
2024/02/17 04:58:16;;;;;;;48.78;17.55;;;;;;;-141.50;100.00;63355.56;4983531;28;20068;-82
2024/02/17 05:00:48;;;;;;;43.83;17.63;;;;;;;-141.50;100.00;63355.56;4998428;28;20045;-81
2024/02/17 05:03:15;;;;;;;47.60;17.67;;;;;;;-141.50;100.00;63355.56;4992872;28;20082;-81
2024/02/17 05:05:43;;;;;;;42.67;17.65;;;;;;;-141.50;100.00;63355.56;4995112;28;20092;-83
2024/02/17 05:08:13;;;;;;;48.70;17.98;;;;;;;-141.50;100.00;63355.56;4990394;28;20058;-82
2024/02/17 05:10:40;;;;;;;42.85;17.02;;;;;;;-141.50;100.00;63355.56;4978821;28;20042;-82
2024/02/17 05:13:07;;;;;;;40.42;16.33;;;;;;;-141.50;100.00;63355.56;4993456;28;20399;-82
2024/02/17 05:15:34;;;;;;;49.97;17.75;;;;;;;-141.50;100.00;63355.56;5009384;28;20049;-81
2024/02/17 05:18:02;;;;;;;48.63;16.98;;;;;;;-141.50;100.00;63355.56;4995295;28;20125;-83
2024/02/17 05:20:30;;;;;;;43.40;15.70;;;;;;;-141.50;100.00;63355.56;4992428;28;20126;-81
2024/02/17 05:22:58;;;;;;;45.42;16.90;;;;;;;-141.50;100.00;63355.56;4996133;28;20106;-81
2024/02/17 05:25:24;;;;;;;46.35;18.13;;;;;;;-141.50;100.00;63355.56;4995901;28;20064;-83
2024/02/17 05:27:52;;;;;;;38.75;16.52;;;;;;;-141.50;100.00;63355.56;4994493;28;20042;-80
2024/02/17 05:30:19;;;;;;;47.30;16.70;;;;;;;-141.50;100.00;63355.56;5003106;28;20058;-81
2024/02/17 05:32:46;;;;;;;45.03;16.98;;;;;;;-141.50;100.00;63355.56;5000798;28;20598;-83
2024/02/17 05:35:15;;;;;;;43.65;16.23;;;;;;;-141.50;100.00;63355.56;4972009;28;20149;-80
2024/02/17 05:37:42;;;;;;;46.42;16.02;;;;;;;-141.50;100.00;63355.56;4999173;28;20042;-82
2024/02/17 05:40:11;;;;;;;48.70;17.20;;;;;;;-141.50;100.00;63355.56;4990379;28;20054;-81
2024/02/17 05:42:38;;;;;;;45.95;17.08;;;;;;;-141.50;100.00;63355.56;5007840;28;20400;-82
2024/02/17 05:45:07;;;;;;;41.70;16.10;;;;;;;-141.50;100.00;63355.56;5001884;28;20518;-80
2024/02/17 05:47:34;;;;;;;42.25;16.05;;;;;;;-141.50;100.00;63355.56;4996591;28;20112;-82
2024/02/17 05:50:03;;;;;;;44.05;15.80;;;;;;;-141.50;100.00;63355.56;4972999;28;20216;-81
2024/02/17 05:52:30;;;;;;;46.05;16.70;;;;;;;-141.50;100.00;63355.56;4996932;28;20344;-80
2024/02/17 05:54:57;;;;;;;41.53;16.13;;;;;;;-141.50;100.00;63355.56;4990708;28;20113;-82
2024/02/17 05:57:24;;;;;;;42.33;15.68;;;;;;;-141.50;100.00;63355.56;4990279;28;20120;-81
2024/02/17 05:59:51;;;;;;;38.65;14.45;;;;;;;-141.50;100.00;63355.56;4992157;28;20046;-79
2024/02/17 06:02:18;;;;;;;43.63;15.30;;;;;;;-141.50;100.00;63355.56;4992527;28;20053;-85
2024/02/17 06:04:44;;;;;;;41.28;15.30;;;;;;;-141.50;100.00;63355.56;4993008;28;20277;-83
2024/02/17 06:07:11;;;;;;;42.50;14.88;;;;;;;-141.50;100.00;63355.56;5000790;28;20081;-83
2024/02/17 06:09:38;;;;;;;38.45;14.10;;;;;;;-141.50;100.00;63355.56;5012445;28;20406;-83
2024/02/17 06:12:06;;;;;;;36.47;14.35;;;;;;;-141.50;100.00;63355.56;4993236;28;20058;-83
2024/02/17 06:14:33;;;;;;;45.67;15.32;;;;;;;-141.50;100.00;63355.56;4994707;28;20618;-82
2024/02/17 06:17:07;;;;;;;37.83;13.88;;;;;;;-141.50;100.00;63355.56;4995003;28;20054;-81
2024/02/17 06:22:20;;;;;;;31.55;12.60;;;;;;;-141.50;100.00;63355.56;4994646;28;20598;-82
2024/02/17 06:24:47;;;;;;;34.95;13.55;;;;;;;-141.50;100.00;63355.56;4991613;28;20061;-84
2024/02/17 06:27:14;;;;;;;33.88;12.68;;;;;;;-141.50;100.00;63355.56;4987474;28;20432;-82
2024/02/17 06:29:42;;;;;;;30.00;12.00;;;;;;;-141.50;100.00;63355.56;4993656;28;20077;-81
2024/02/17 06:32:09;;;;;;;32.92;12.32;;;;;;;-141.50;100.00;63355.56;4977831;28;20108;-82
2024/02/17 06:34:38;;;;;;;28.88;11.55;;;;;;;-141.50;100.00;63355.56;5007831;28;20053;-82
2024/02/17 06:37:05;;;;;;;25.73;11.23;;;;;;;-141.50;100.00;63355.56;4991813;28;20065;-82
2024/02/17 06:39:34;;;;;;;27.30;10.75;;;;;;;-141.50;100.00;63355.56;4991276;28;20061;-83
2024/02/17 06:42:02;;;;;;;28.65;10.73;;;;;;;-141.50;100.00;63355.56;4973986;28;20062;-81
2024/02/17 06:44:29;;;;;;;23.52;10.50;;;;;;;-141.50;100.00;63355.56;4990276;28;20054;-82
2024/02/17 06:46:56;;;;;;;25.95;10.25;;;;;;;-141.50;100.00;63355.56;4975892;28;20052;-82
2024/02/17 06:49:22;;;;;;;21.40;9.63;;;;;;;-141.50;100.00;63355.56;5002772;28;20093;-83
2024/02/17 06:51:50;;;;;;;23.48;9.45;;;;;;;-141.50;100.00;63355.56;4990207;28;20098;-83
2024/02/17 06:54:17;;;;;;;20.35;8.65;;;;;;;-141.50;100.00;63355.56;4990190;28;20047;-81
2024/02/17 06:56:44;;;;;;;18.95;8.73;;;;;;;-141.50;100.00;63355.56;5001191;28;20045;-82
2024/02/17 06:59:11;;;;;;;21.52;9.23;;;;;;;-141.50;100.00;63355.56;4985708;28;20091;-83
2024/02/17 07:01:38;;;;;;;19.17;7.80;;;;;;;-141.50;100.00;63355.56;4984342;28;20506;-83
2024/02/17 07:04:05;;;;;;;17.33;7.82;;;;;;;-141.50;100.00;63355.56;4999904;28;20049;-83
2024/02/17 07:06:32;;;;;;;19.85;8.00;;;;;;;-141.50;100.00;63355.56;4995436;28;20065;-83
2024/02/17 07:08:59;;;;;;;17.42;7.40;;;;;;;-141.50;100.00;63355.56;4984491;28;20050;-82
2024/02/17 07:11:28;;;;;;;20.20;8.38;;;;;;;-141.50;100.00;63355.56;4993914;28;20554;-83
2024/02/17 07:13:55;;;;;;;18.30;8.30;;;;;;;-141.50;100.00;63355.56;5000399;28;20410;-83
2024/02/17 07:16:22;;;;;;;20.10;8.18;;;;;;;-141.50;100.00;63355.56;4995329;28;20485;-83
2024/02/17 07:18:50;;;;;;;17.15;8.13;;;;;;;-141.50;100.00;63355.56;4996468;28;20140;-82
2024/02/17 07:21:17;;;;;;;17.70;8.13;;;;;;;-141.50;100.00;63355.56;4996463;28;20050;-81
2024/02/17 07:23:44;;;;;;;17.73;8.10;;;;;;;-141.50;100.00;63355.56;4993349;28;20058;-81
2024/02/17 07:26:11;;;;;;;20.45;8.60;;;;;;;-141.50;100.00;63355.56;4982880;28;20058;-82
2024/02/17 07:28:38;;;;;;;23.40;9.00;;;;;;;-141.50;100.00;63355.56;4983829;28;20050;-82
2024/02/17 07:31:05;;;;;;;20.67;8.57;;;;;;;-141.50;100.00;63355.56;4995597;28;20057;-82
2024/02/17 07:33:32;;;;;;;19.75;8.57;;;;;;;-141.50;100.00;63355.56;5000796;28;20262;-81
2024/02/17 07:36:00;;;;;;;17.20;8.50;;;;;;;-141.50;100.00;63355.56;4995831;28;20054;-84
2024/02/17 07:38:27;;;;;;;19.90;8.60;;;;;;;-141.50;100.00;63355.56;4997931;28;20054;-85
2024/02/17 07:40:54;;;;;;;23.20;9.05;;;;;;;-141.50;100.00;63355.56;4993130;28;20176;-83
2024/02/17 07:43:21;;;;;;;23.35;9.13;;;;;;;-141.50;100.00;63355.56;4984499;28;20054;-82
2024/02/17 07:45:48;;;;;;;22.95;9.73;;;;;;;-141.50;100.00;63355.56;5000352;28;20286;-80
2024/02/17 07:48:17;;;;;;;21.10;8.88;;;;;;;-141.50;100.00;63355.56;5002081;28;20104;-83
2024/02/17 07:50:44;;;;;;;17.55;8.50;;;;;;;-141.50;100.00;63355.56;4986609;28;20085;-83
2024/02/17 07:53:11;;;;;;;23.40;9.63;;;;;;;-141.50;100.00;63355.56;4987419;28;20066;-82
2024/02/17 07:55:38;;;;;;;21.92;8.77;;;;;;;-141.50;100.00;63355.56;5001502;28;20438;-84
2024/02/17 07:58:08;;;;;;;20.40;8.90;;;;;;;-141.50;100.00;63355.56;4989291;28;20061;-80
2024/02/17 08:00:35;;;;;;;23.20;9.95;;;;;;;-141.50;100.00;63355.56;4990760;28;20066;-81
2024/02/17 08:03:02;;;;;;;21.25;9.32;;;;;;;-141.50;100.00;63355.56;4990804;28;20104;-83
2024/02/17 08:05:29;;;;;;;18.25;8.57;;;;;;;-141.50;100.00;63355.56;4988691;28;20097;-81
2024/02/17 08:07:56;;;;;;;20.75;8.60;;;;;;;-141.50;100.00;63355.56;4992335;28;20062;-82
2024/02/17 08:10:23;;;;;;;21.20;9.25;;;;;;;-141.50;100.00;63355.56;4991848;28;20213;-81
2024/02/17 08:12:50;;;;;;;21.88;9.98;;;;;;;-141.50;100.00;63355.56;4997857;28;20062;-82
2024/02/17 08:15:18;;;;;;;21.05;9.23;;;;;;;-141.50;100.00;63355.56;4998760;28;20072;-83
2024/02/17 08:17:45;;;;;;;22.13;9.40;;;;;;;-141.50;100.00;63355.56;5001013;28;20138;-81
2024/02/17 08:20:12;;;;;;;24.27;10.52;;;;;;;-141.50;100.00;63355.56;4993302;28;20062;-83
2024/02/17 08:22:40;;;;;;;26.02;9.57;;;;;;;-141.50;100.00;63355.56;4976866;28;20065;-83
2024/02/17 08:25:09;;;;;;;22.55;10.10;;;;;;;-141.50;100.00;63355.56;5006350;28;20053;-82
2024/02/17 08:27:36;;;;;;;25.33;10.52;;;;;;;-141.50;100.00;63355.56;5000088;28;20069;-83
2024/02/17 08:30:04;;;;;;;28.88;11.32;;;;;;;-141.50;100.00;63355.56;5006547;28;20127;-82
2024/02/17 08:32:34;;;;;;;22.52;9.57;;;;;;;-141.50;100.00;63355.56;5002641;28;20062;-84
2024/02/17 08:35:02;;;;;;;25.65;10.00;;;;;;;-141.50;100.00;63355.56;4993198;28;20050;-88
2024/02/17 08:37:30;;;;;;;21.48;9.00;;;;;;;-141.50;100.00;63355.56;4992322;28;20061;-84
2024/02/17 08:39:57;;;;;;;19.85;8.80;;;;;;;-141.50;100.00;63355.56;5000382;28;20074;-84
2024/02/17 08:42:24;;;;;;;18.25;9.38;;;;;;;-141.50;100.00;63355.56;5000961;28;20058;-84
2024/02/17 08:44:54;;;;;;;22.50;9.63;;;;;;;-141.50;100.00;63355.56;5006176;28;20050;-82
2024/02/17 08:47:22;;;;;;;20.83;9.43;;;;;;;-141.50;100.00;63355.56;4995848;28;20113;-82
2024/02/17 08:49:51;;;;;;;19.92;8.85;;;;;;;-141.50;100.00;63355.56;4976772;28;20415;-81
2024/02/17 08:52:19;;;;;;;19.70;9.00;;;;;;;-141.50;100.00;63355.56;4993619;28;20050;-83
2024/02/17 08:54:46;;;;;;;22.17;9.50;;;;;;;-141.50;100.00;63355.56;4997314;28;20089;-82
2024/02/17 08:57:13;;;;;;;18.60;8.82;;;;;;;-141.50;100.00;63355.56;5000806;28;20092;-83
2024/02/17 08:59:40;;;;;;;19.70;9.10;;;;;;;-141.50;100.00;63355.56;4983291;28;20065;-82
2024/02/17 09:02:07;;;;;;;16.63;8.50;;;;;;;-141.50;100.00;63355.56;4995303;28;20077;-82
2024/02/17 09:04:34;;;;;;;17.15;8.13;;;;;;;-141.50;100.00;63355.56;4988568;28;20529;-82
2024/02/17 09:07:01;;;;;;;16.30;7.65;;;;;;;-141.50;100.00;63355.56;4976207;28;20058;-82
2024/02/17 09:09:28;;;;;;;17.85;8.43;;;;;;;-141.50;100.00;63355.56;4994441;28;20108;-82
2024/02/17 09:11:55;;;;;;;18.08;7.40;;;;;;;-141.50;100.00;63355.56;4998498;28;20068;-82
2024/02/17 09:14:22;;;;;;;17.17;6.82;;;;;;;-141.50;100.00;63355.56;4996102;28;20081;-82
2024/02/17 09:16:51;;;;;;;15.55;6.63;;;;;;;-141.50;100.00;63355.56;5001302;28;20526;-83
2024/02/17 09:19:18;;;;;;;14.07;6.82;;;;;;;-141.50;100.00;63355.56;4973537;28;20058;-83
2024/02/17 09:21:45;;;;;;;14.23;6.57;;;;;;;-141.50;100.00;63355.56;4995104;28;20062;-84
2024/02/17 09:24:12;;;;;;;13.10;6.43;;;;;;;-141.50;100.00;63355.56;4997844;28;20116;-82
2024/02/17 09:26:40;;;;;;;12.18;5.93;;;;;;;-141.50;100.00;63355.56;5010554;28;20054;-83
2024/02/17 09:29:07;;;;;;;11.02;5.93;;;;;;;-141.50;100.00;63355.56;4997011;28;20058;-82
2024/02/17 09:31:34;;;;;;;11.93;6.00;;;;;;;-141.50;100.00;63355.56;5000738;28;20506;-83
2024/02/17 09:34:01;;;;;;;12.32;5.88;;;;;;;-141.50;100.00;63355.56;4996888;28;20058;-82
2024/02/17 09:36:29;;;;;;;16.10;6.75;;;;;;;-141.50;100.00;63355.56;5006754;28;20125;-82
2024/02/17 09:38:58;;;;;;;13.05;6.47;;;;;;;-141.50;100.00;63355.56;5001411;28;20503;-84
2024/02/17 09:41:25;;;;;;;16.00;7.13;;;;;;;-141.50;100.00;63355.56;4997031;28;20057;-83
2024/02/17 09:43:55;;;;;;;12.93;6.72;;;;;;;-141.50;100.00;63355.56;5004591;28;20066;-83
2024/02/17 09:46:26;;;;;;;14.15;6.60;;;;;;;-141.50;100.00;63355.56;4999822;28;20058;-84
2024/02/17 09:48:58;;;;;;;12.10;6.13;;;;;;;-141.50;100.00;63355.56;5007970;28;20062;-84
2024/02/17 09:51:25;;;;;;;13.02;6.72;;;;;;;-141.50;100.00;63355.56;5000676;28;20581;-84
2024/02/17 09:53:56;;;;;;;13.25;6.82;;;;;;;-141.50;100.00;63355.56;5001633;28;20054;-84
2024/02/17 09:56:24;;;;;;;13.27;6.40;;;;;;;-141.50;100.00;63355.56;4998606;28;20063;-84
2024/02/17 09:58:52;;;;;;;14.73;6.93;;;;;;;-141.50;100.00;63355.56;4983345;28;20057;-84
2024/02/17 10:01:19;;;;;;;13.98;6.18;;;;;;;-141.50;100.00;63355.56;4996455;28;20053;-82
2024/02/17 10:03:46;;;;;;;15.38;6.53;;;;;;;-141.50;100.00;63355.56;5003360;28;20470;-81
2024/02/17 10:06:15;;;;;;;10.40;5.68;;;;;;;-141.50;100.00;63355.56;4998793;28;20570;-82
2024/02/17 10:08:46;;;;;;;12.50;5.57;;;;;;;-141.50;100.00;63355.56;5000614;28;20063;-83
2024/02/17 10:11:13;;;;;;;10.77;5.35;;;;;;;-141.50;100.00;63355.56;4987181;28;20555;-82
2024/02/17 10:13:42;;;;;;;13.60;6.15;;;;;;;-141.50;100.00;63355.56;4998693;28;21297;-82
2024/02/17 10:16:13;;;;;;;8.55;4.72;;;;;;;-141.50;100.00;63355.56;4992684;28;20081;-82
2024/02/17 10:18:42;;;;;;;10.48;5.38;;;;;;;-141.50;100.00;63355.56;5007442;28;20050;-83
2024/02/17 10:21:09;;;;;;;11.50;5.07;;;;;;;-141.50;100.00;63355.56;4999034;28;20050;-83
2024/02/17 10:23:37;;;;;;;11.75;5.28;;;;;;;-141.50;100.00;63355.56;4993915;28;20491;-81
2024/02/17 10:26:06;;;;;;;10.60;5.40;;;;;;;-141.50;100.00;63355.56;4994422;28;20053;-83
2024/02/17 10:28:33;;;;;;;11.27;4.72;;;;;;;-141.50;100.00;63355.56;4976576;28;20080;-82
2024/02/17 10:31:03;;;;;;;9.85;5.18;;;;;;;-141.50;100.00;63355.56;5010454;28;20054;-82
2024/02/17 10:33:30;;;;;;;10.52;4.85;;;;;;;-141.50;100.00;63355.56;5004172;28;20042;-82
2024/02/17 10:35:59;;;;;;;12.75;5.07;;;;;;;-141.50;100.00;63355.56;5001483;28;20058;-83
2024/02/17 10:38:27;;;;;;;12.15;6.03;;;;;;;-141.50;100.00;63355.56;4978883;28;20097;-82
2024/02/17 10:40:54;;;;;;;11.50;5.47;;;;;;;-141.50;100.00;63355.56;4994557;28;20069;-83
2024/02/17 10:43:21;;;;;;;12.05;6.25;;;;;;;-141.50;100.00;63355.56;4997743;28;20061;-83
2024/02/17 10:45:53;;;;;;;13.75;6.10;;;;;;;-141.50;100.00;63355.56;5001426;28;20125;-83
2024/02/17 10:48:24;;;;;;;13.68;6.95;;;;;;;-141.50;100.00;63355.56;4980997;28;20076;-82
2024/02/17 10:50:53;;;;;;;16.15;6.85;;;;;;;-141.50;100.00;63355.56;5000412;28;20085;-82
2024/02/17 10:53:35;;;;;;;14.25;6.68;;;;;;;-141.50;100.00;63355.56;4971350;28;20533;-83
2024/02/17 10:56:05;;;;;;;12.77;6.88;;;;;;;-141.50;100.00;63355.56;4988745;28;20042;-82
2024/02/17 10:58:36;;;;;;;14.73;6.85;;;;;;;-141.50;100.00;63355.56;4993285;28;20573;-82
2024/02/17 11:01:03;;;;;;;14.73;6.38;;;;;;;-141.50;100.00;63355.56;4992015;28;20112;-83